Time;durP1;ratioP1;P1;durP2;ratioP2;P2;SDS_P1;SDS_P2;PMS_P1;PMS_P2;Temp;Humidity;BMP_temperature;BMP_pressure;BME280_temperature;BME280_humidity;BME280_pressure;Samples;Min_cycle;Max_cycle;Signal;HPM_P1;HPM_P2
2021/07/25 00:01:36;;;;;;;10.50;9.43;;;;;;;17.01;100.00;97403.75;4987236;28;20210;-69
2021/07/25 00:04:05;;;;;;;9.87;9.07;;;;;;;16.94;100.00;97400.31;4982799;28;20284;-69
2021/07/25 00:06:34;;;;;;;10.23;9.20;;;;;;;16.89;100.00;97406.31;4989057;28;20209;-71
2021/07/25 00:09:02;;;;;;;9.63;8.73;;;;;;;16.88;100.00;97398.50;4987444;28;20209;-68
2021/07/25 00:11:31;;;;;;;9.67;8.67;;;;;;;16.85;100.00;97393.56;4985583;28;20685;-68
2021/07/25 00:14:03;;;;;;;10.50;9.60;;;;;;;16.74;100.00;97395.13;4987694;28;20288;-71
2021/07/25 00:16:31;;;;;;;9.17;8.37;;;;;;;16.72;100.00;97394.53;4988688;28;20296;-70
2021/07/25 00:18:59;;;;;;;9.13;8.23;;;;;;;16.71;100.00;97393.69;4989312;28;20209;-69
2021/07/25 00:21:27;;;;;;;10.17;8.93;;;;;;;16.72;100.00;97386.50;4990820;28;20465;-71
2021/07/25 00:23:59;;;;;;;9.97;8.97;;;;;;;16.72;100.00;97389.97;4988812;28;20228;-70
2021/07/25 00:26:33;;;;;;;8.70;7.87;;;;;;;16.64;100.00;97387.59;4990626;28;20465;-70
2021/07/25 00:29:01;;;;;;;10.67;8.40;;;;;;;16.62;100.00;97382.44;4989241;28;20553;-68
2021/07/25 00:31:29;;;;;;;10.83;9.83;;;;;;;16.61;100.00;97374.66;4985710;28;20230;-68
2021/07/25 00:33:57;;;;;;;8.97;7.60;;;;;;;16.68;100.00;97378.06;4989554;28;21279;-71
2021/07/25 00:36:27;;;;;;;8.57;7.87;;;;;;;16.59;100.00;97388.22;4988270;28;20210;-69
2021/07/25 00:38:55;;;;;;;9.27;8.47;;;;;;;16.56;100.00;97379.84;4984053;28;20515;-69
2021/07/25 00:41:24;;;;;;;9.23;8.33;;;;;;;16.55;100.00;97383.53;4989034;28;20585;-69
2021/07/25 00:43:52;;;;;;;10.07;8.97;;;;;;;16.54;100.00;97385.38;4989670;28;20248;-72
2021/07/25 00:46:20;;;;;;;8.33;7.63;;;;;;;16.45;100.00;97379.47;4988075;28;20210;-71
2021/07/25 00:48:48;;;;;;;9.67;8.00;;;;;;;16.55;100.00;97378.19;4988957;28;20212;-70
2021/07/25 00:51:16;;;;;;;9.17;8.37;;;;;;;16.46;100.00;97375.75;4990688;28;20736;-69
2021/07/25 00:53:44;;;;;;;8.33;7.50;;;;;;;16.46;100.00;97380.31;4987317;28;20305;-69
2021/07/25 00:56:13;;;;;;;9.13;8.23;;;;;;;16.45;100.00;97368.78;4986524;28;20210;-69
2021/07/25 00:58:44;;;;;;;9.03;8.23;;;;;;;16.52;100.00;97375.97;4984478;28;20206;-70
2021/07/25 01:01:13;;;;;;;9.80;7.73;;;;;;;16.53;100.00;97380.28;4991023;28;20210;-71
2021/07/25 01:03:48;;;;;;;8.43;7.83;;;;;;;16.52;100.00;97379.44;4987780;28;20685;-69
2021/07/25 01:06:23;;;;;;;9.33;8.40;;;;;;;16.44;100.00;97366.34;4986468;28;20204;-68
2021/07/25 01:08:57;;;;;;;8.40;7.50;;;;;;;16.41;100.00;97370.25;4986910;28;20831;-69
2021/07/25 01:11:29;;;;;;;8.20;7.50;;;;;;;16.49;100.00;97369.19;4983754;28;20229;-69
2021/07/25 01:14:03;;;;;;;8.00;7.30;;;;;;;16.42;100.00;97371.88;4986412;28;20229;-70
2021/07/25 01:16:32;;;;;;;10.13;7.77;;;;;;;16.47;100.00;97389.97;4985353;28;20237;-71
2021/07/25 01:19:00;;;;;;;8.67;7.97;;;;;;;16.49;100.00;97391.41;4986312;28;20209;-70
2021/07/25 01:21:29;;;;;;;8.87;8.07;;;;;;;16.53;100.00;97393.66;4982899;28;20209;-69
2021/07/25 01:23:59;;;;;;;9.00;7.53;;;;;;;16.55;100.00;97403.06;4985592;28;20224;-69
2021/07/25 01:26:28;;;;;;;8.30;7.57;;;;;;;16.57;100.00;97400.19;4983315;28;20233;-69
2021/07/25 01:28:58;;;;;;;8.50;7.60;;;;;;;16.51;100.00;97395.72;4983716;28;20216;-68
2021/07/25 01:31:31;;;;;;;8.47;7.87;;;;;;;16.47;100.00;97400.66;4983457;28;21003;-70
2021/07/25 01:34:00;;;;;;;9.53;8.57;;;;;;;16.45;100.00;97400.88;4989659;28;20285;-69
2021/07/25 01:36:31;;;;;;;8.83;7.97;;;;;;;16.44;100.00;97409.13;4985329;28;20210;-71
2021/07/25 01:38:59;;;;;;;7.90;7.20;;;;;;;16.39;100.00;97398.25;4990634;28;20234;-68
2021/07/25 01:41:27;;;;;;;8.90;8.10;;;;;;;16.39;100.00;97399.06;4986811;28;20209;-70
2021/07/25 01:43:55;;;;;;;8.50;7.50;;;;;;;16.44;100.00;97395.75;4984772;28;20238;-70
2021/07/25 01:46:23;;;;;;;8.83;8.03;;;;;;;16.42;100.00;97389.81;4983364;28;20214;-69
2021/07/25 01:48:51;;;;;;;9.50;8.60;;;;;;;16.43;100.00;97402.94;4988808;28;20213;-69
2021/07/25 01:51:19;;;;;;;8.63;7.80;;;;;;;16.47;100.00;97409.50;4980159;28;20621;-69
2021/07/25 01:53:48;;;;;;;8.37;7.57;;;;;;;16.39;100.00;97415.09;4984250;28;20263;-69
2021/07/25 01:56:16;;;;;;;8.83;7.93;;;;;;;16.34;100.00;97404.25;4984178;28;20591;-72
2021/07/25 01:58:44;;;;;;;9.77;8.27;;;;;;;16.34;100.00;97413.09;4981937;28;20384;-71
2021/07/25 02:01:12;;;;;;;8.13;7.43;;;;;;;16.27;100.00;97424.88;4988123;28;20204;-72
2021/07/25 02:03:40;;;;;;;8.80;8.03;;;;;;;16.24;100.00;97431.44;4983742;28;20225;-69
2021/07/25 02:06:08;;;;;;;8.07;7.20;;;;;;;16.22;100.00;97432.72;4986053;28;20641;-72
2021/07/25 02:08:36;;;;;;;8.73;7.93;;;;;;;16.16;100.00;97437.88;4983126;28;20225;-70
2021/07/25 02:11:07;;;;;;;8.80;8.03;;;;;;;16.18;100.00;97438.47;4981476;28;20841;-71
2021/07/25 02:13:35;;;;;;;9.53;8.57;;;;;;;16.17;100.00;97441.34;4986801;28;20220;-70
2021/07/25 02:16:03;;;;;;;9.43;8.57;;;;;;;16.27;100.00;97440.91;4985002;28;20209;-69
2021/07/25 02:18:31;;;;;;;8.90;8.10;;;;;;;16.14;100.00;97441.78;4984262;28;20224;-70
2021/07/25 02:20:59;;;;;;;8.97;7.80;;;;;;;16.10;100.00;97429.88;4989188;28;20217;-69
2021/07/25 02:23:27;;;;;;;8.77;7.60;;;;;;;16.18;100.00;97434.97;4983814;28;20213;-69
2021/07/25 02:25:55;;;;;;;9.87;8.20;;;;;;;16.23;100.00;97455.72;4980537;28;20230;-70
2021/07/25 02:28:24;;;;;;;8.93;7.97;;;;;;;16.15;100.00;97471.00;4982567;28;20761;-69
2021/07/25 02:30:52;;;;;;;8.27;7.57;;;;;;;16.14;100.00;97464.00;4983826;28;20209;-71
2021/07/25 02:33:20;;;;;;;8.43;7.63;;;;;;;16.04;100.00;97468.97;4986004;28;20201;-70
2021/07/25 02:35:48;;;;;;;8.83;7.93;;;;;;;16.01;100.00;97474.72;4989853;28;20264;-70
2021/07/25 02:38:16;;;;;;;9.13;7.70;;;;;;;16.01;100.00;97470.22;4984932;28;20206;-70
2021/07/25 02:40:44;;;;;;;8.43;7.60;;;;;;;15.98;100.00;97470.66;4984515;28;20218;-70
2021/07/25 02:43:11;;;;;;;9.70;8.77;;;;;;;15.94;100.00;97468.59;4985815;28;20671;-70
2021/07/25 02:45:41;;;;;;;8.53;7.70;;;;;;;15.89;100.00;97466.56;4981313;28;20322;-70
2021/07/25 02:48:09;;;;;;;9.80;7.97;;;;;;;15.86;100.00;97469.63;4991230;28;20728;-70
2021/07/25 02:50:37;;;;;;;8.47;7.70;;;;;;;15.84;100.00;97464.50;4985335;28;20231;-72
2021/07/25 02:53:04;;;;;;;7.57;6.97;;;;;;;15.92;100.00;97471.50;4987148;28;20804;-72
2021/07/25 02:55:32;;;;;;;8.97;8.07;;;;;;;15.87;100.00;97474.75;4981436;28;20244;-70
2021/07/25 02:58:00;;;;;;;9.30;7.90;;;;;;;15.89;100.00;97462.03;4980937;28;20236;-69
2021/07/25 03:00:28;;;;;;;8.50;7.70;;;;;;;15.93;100.00;97454.44;4981972;28;20237;-70
2021/07/25 03:02:58;;;;;;;8.90;7.80;;;;;;;15.91;100.00;97461.84;4984256;28;20232;-71
2021/07/25 03:05:26;;;;;;;7.67;7.07;;;;;;;15.90;100.00;97450.31;4985465;28;20228;-72
2021/07/25 03:07:54;;;;;;;8.53;7.83;;;;;;;15.93;100.00;97445.59;4981151;28;20221;-70
2021/07/25 03:10:22;;;;;;;8.37;7.43;;;;;;;15.96;100.00;97446.00;4982913;28;20210;-72
2021/07/25 03:12:50;;;;;;;8.40;7.60;;;;;;;15.96;100.00;97454.00;4984597;28;20233;-71
2021/07/25 03:15:18;;;;;;;8.63;7.87;;;;;;;15.99;100.00;97444.72;4980989;28;20240;-71
2021/07/25 03:17:46;;;;;;;9.37;7.50;;;;;;;16.01;100.00;97443.50;4982516;28;20224;-70
2021/07/25 03:20:16;;;;;;;8.20;7.40;;;;;;;16.01;100.00;97448.00;4985113;28;20217;-70
2021/07/25 03:22:44;;;;;;;9.80;7.77;;;;;;;15.99;100.00;97444.72;4987348;28;20213;-70
2021/07/25 03:25:13;;;;;;;9.00;8.07;;;;;;;16.00;100.00;97435.69;4980415;28;20236;-69
2021/07/25 03:27:41;;;;;;;8.10;7.23;;;;;;;15.97;100.00;97417.41;4986125;28;20209;-70
2021/07/25 03:30:09;;;;;;;7.67;6.97;;;;;;;15.99;100.00;97418.00;4985544;28;20209;-71
2021/07/25 03:32:37;;;;;;;8.30;7.50;;;;;;;15.97;100.00;97420.91;4977528;28;20225;-69
2021/07/25 03:35:05;;;;;;;8.00;7.40;;;;;;;15.98;100.00;97419.03;4981455;28;20259;-71
2021/07/25 03:37:35;;;;;;;8.37;7.77;;;;;;;15.98;100.00;97440.41;4982254;28;20218;-71
2021/07/25 03:40:03;;;;;;;7.70;7.00;;;;;;;16.10;100.00;97441.41;4984698;28;20208;-70
2021/07/25 03:42:31;;;;;;;7.93;7.33;;;;;;;16.43;100.00;97447.59;4984486;28;20205;-69
2021/07/25 03:44:58;;;;;;;8.53;7.83;;;;;;;16.38;100.00;97445.56;4987269;28;20230;-70
2021/07/25 03:47:26;;;;;;;8.17;7.47;;;;;;;16.23;100.00;97451.19;4986410;28;20791;-69
2021/07/25 03:49:54;;;;;;;9.33;8.30;;;;;;;16.12;100.00;97454.53;4982539;28;20220;-69
2021/07/25 03:52:22;;;;;;;9.00;8.13;;;;;;;16.06;100.00;97449.03;4983044;28;20786;-69
2021/07/25 03:54:52;;;;;;;9.53;8.63;;;;;;;16.18;100.00;97443.00;4982676;28;20225;-69
2021/07/25 03:57:20;;;;;;;8.80;8.00;;;;;;;16.25;100.00;97437.63;4983894;28;20201;-72
2021/07/25 03:59:48;;;;;;;8.30;7.60;;;;;;;16.22;100.00;97430.03;4983299;28;20201;-71
2021/07/25 04:02:16;;;;;;;8.23;7.53;;;;;;;16.18;100.00;97432.31;4981776;28;20582;-70
2021/07/25 04:04:44;;;;;;;10.07;9.17;;;;;;;16.18;100.00;97434.97;4978361;28;20236;-71
2021/07/25 04:07:12;;;;;;;8.17;7.37;;;;;;;16.15;100.00;97432.72;4979410;28;20206;-71
2021/07/25 04:09:40;;;;;;;8.00;7.30;;;;;;;16.13;100.00;97430.28;4983858;28;20682;-70
2021/07/25 04:12:10;;;;;;;7.73;7.10;;;;;;;16.10;100.00;97419.19;4982337;28;20229;-69
2021/07/25 04:14:38;;;;;;;8.07;7.37;;;;;;;16.12;100.00;97419.81;4985720;28;20225;-71
2021/07/25 04:17:06;;;;;;;8.30;7.60;;;;;;;16.11;100.00;97432.34;4980559;28;20223;-70
2021/07/25 04:19:34;;;;;;;8.83;8.10;;;;;;;16.10;100.00;97422.69;4978276;28;20217;-70
2021/07/25 04:22:02;;;;;;;7.93;7.17;;;;;;;16.11;100.00;97418.16;4984491;28;20801;-70
2021/07/25 04:24:30;;;;;;;7.80;7.20;;;;;;;16.12;100.00;97425.16;4981564;28;20234;-70
2021/07/25 04:26:58;;;;;;;7.70;7.00;;;;;;;16.24;100.00;97425.28;4984407;28;20206;-71
2021/07/25 04:29:28;;;;;;;7.37;6.77;;;;;;;16.20;100.00;97428.41;4981724;28;20212;-70
2021/07/25 04:31:56;;;;;;;7.87;7.07;;;;;;;16.19;100.00;97429.44;4976750;28;20210;-68
2021/07/25 04:34:25;;;;;;;9.40;8.37;;;;;;;16.19;100.00;97426.75;4980839;28;20237;-69
2021/07/25 04:36:53;;;;;;;7.53;6.70;;;;;;;16.19;100.00;97432.09;4978916;28;20293;-67
2021/07/25 04:39:22;;;;;;;7.70;7.10;;;;;;;16.29;100.00;97428.13;4979420;28;20209;-68
2021/07/25 04:41:53;;;;;;;9.27;8.30;;;;;;;16.25;100.00;97437.63;4984466;28;20617;-68
2021/07/25 04:44:26;;;;;;;8.80;8.00;;;;;;;16.25;100.00;97437.63;4976719;28;20370;-69
2021/07/25 04:46:56;;;;;;;8.90;8.10;;;;;;;16.23;100.00;97437.81;4980864;28;20244;-70
2021/07/25 04:49:25;;;;;;;8.70;7.73;;;;;;;16.18;100.00;97448.34;4979562;28;20202;-69
2021/07/25 04:51:53;;;;;;;8.63;7.83;;;;;;;16.11;100.00;97453.75;4979790;28;20217;-69
2021/07/25 04:54:22;;;;;;;9.43;7.83;;;;;;;16.19;100.00;97445.47;4983209;28;20229;-69
2021/07/25 04:56:58;;;;;;;8.90;8.03;;;;;;;16.22;100.00;97451.41;4983155;28;20738;-69
2021/07/25 04:59:30;;;;;;;8.83;7.73;;;;;;;16.25;100.00;97457.13;4985856;28;20209;-67
2021/07/25 05:02:03;;;;;;;10.73;8.27;;;;;;;16.32;100.00;97449.09;4986968;28;20214;-70
2021/07/25 05:04:33;;;;;;;8.37;7.67;;;;;;;16.34;100.00;97458.56;4981746;28;20280;-68
2021/07/25 05:07:02;;;;;;;8.77;7.87;;;;;;;16.40;100.00;97461.41;4985110;28;20213;-69
2021/07/25 05:09:31;;;;;;;8.80;7.77;;;;;;;16.40;100.00;97464.88;4988251;28;20221;-69
2021/07/25 05:12:02;;;;;;;9.33;8.43;;;;;;;16.49;100.00;97468.13;4984095;28;20214;-68
2021/07/25 05:14:34;;;;;;;8.03;7.43;;;;;;;16.51;100.00;97455.34;4983818;28;20237;-70
2021/07/25 05:17:10;;;;;;;8.50;7.87;;;;;;;16.53;100.00;97455.97;4986657;28;20205;-69
2021/07/25 05:19:53;;;;;;;8.60;7.60;;;;;;;16.55;100.00;97455.75;4983901;28;20213;-70
2021/07/25 05:22:30;;;;;;;10.03;8.90;;;;;;;16.62;100.00;97461.88;4984439;28;20213;-70
2021/07/25 05:24:59;;;;;;;7.80;7.17;;;;;;;16.59;100.00;97465.00;4983457;28;20225;-74
2021/07/25 05:27:39;;;;;;;11.07;7.87;;;;;;;16.88;100.00;97470.75;4984167;28;20660;-73
2021/07/25 05:30:08;;;;;;;7.77;7.17;;;;;;;16.73;100.00;97477.22;4986510;28;20209;-71
2021/07/25 05:32:37;;;;;;;8.33;7.53;;;;;;;16.82;100.00;97475.13;4982061;28;20677;-72
2021/07/25 05:35:06;;;;;;;7.77;7.07;;;;;;;16.82;100.00;97469.75;4983889;28;20228;-71
2021/07/25 05:37:35;;;;;;;8.20;7.60;;;;;;;16.92;100.00;97463.94;4983890;28;20217;-70
2021/07/25 05:40:03;;;;;;;8.53;7.73;;;;;;;17.07;100.00;97469.00;4981262;28;20429;-69
2021/07/25 05:42:31;;;;;;;8.03;7.40;;;;;;;17.33;100.00;97472.47;4986108;28;20213;-71
2021/07/25 05:44:59;;;;;;;7.70;6.97;;;;;;;17.61;100.00;97488.03;4988349;28;20221;-72
2021/07/25 05:47:27;;;;;;;7.37;6.77;;;;;;;17.55;100.00;97501.53;4983993;28;20210;-71
2021/07/25 05:49:56;;;;;;;8.37;7.57;;;;;;;17.54;100.00;97518.63;4983408;28;20213;-70
2021/07/25 05:52:24;;;;;;;8.20;7.50;;;;;;;17.70;100.00;97501.16;4983064;28;20818;-70
2021/07/25 05:54:52;;;;;;;8.57;7.77;;;;;;;17.90;100.00;97506.31;4988330;28;20239;-70
2021/07/25 05:57:20;;;;;;;7.93;7.23;;;;;;;17.98;100.00;97506.00;4986504;28;20222;-70
2021/07/25 05:59:48;;;;;;;8.10;7.33;;;;;;;18.12;100.00;97504.03;4986567;28;20419;-71
2021/07/25 06:02:16;;;;;;;8.80;8.20;;;;;;;18.30;100.00;97500.50;4983859;28;20210;-71
2021/07/25 06:04:44;;;;;;;8.00;7.33;;;;;;;18.19;99.97;97507.44;4986274;28;20548;-70
2021/07/25 06:07:13;;;;;;;7.93;7.23;;;;;;;18.33;100.00;97515.31;4978404;28;20202;-69
2021/07/25 06:09:41;;;;;;;7.93;7.23;;;;;;;18.31;100.00;97514.72;4984596;28;20212;-70
2021/07/25 06:12:13;;;;;;;8.30;7.60;;;;;;;18.25;99.46;97535.22;4981142;28;20201;-70
2021/07/25 06:14:41;;;;;;;8.37;7.57;;;;;;;18.24;99.06;97533.59;4982812;28;20676;-70
2021/07/25 06:17:08;;;;;;;7.90;7.20;;;;;;;18.25;99.44;97534.41;4988301;28;20201;-70
2021/07/25 06:19:36;;;;;;;8.70;7.87;;;;;;;18.21;100.00;97529.47;4982503;28;20309;-71
2021/07/25 06:22:05;;;;;;;7.87;7.10;;;;;;;18.21;100.00;97534.84;4990670;28;20201;-70
2021/07/25 06:24:34;;;;;;;8.03;7.23;;;;;;;18.21;99.45;97534.03;4984169;28;20221;-71
2021/07/25 06:27:02;;;;;;;7.40;6.70;;;;;;;18.23;100.00;97531.97;4987211;28;20634;-70
2021/07/25 06:29:30;;;;;;;8.63;7.73;;;;;;;18.22;100.00;97525.75;4986416;28;20212;-70
2021/07/25 06:31:58;;;;;;;7.70;7.10;;;;;;;18.26;99.81;97523.47;4983921;28;20220;-70
2021/07/25 06:34:26;;;;;;;7.57;6.97;;;;;;;18.21;99.70;97534.84;4983802;28;20739;-69
2021/07/25 06:36:54;;;;;;;7.23;6.63;;;;;;;18.41;98.71;97523.06;4987383;28;20224;-69
2021/07/25 06:39:21;;;;;;;7.40;6.80;;;;;;;18.47;97.49;97529.38;4981474;28;20528;-70
2021/07/25 06:41:51;;;;;;;8.80;6.93;;;;;;;18.49;97.84;97524.59;4985066;28;20228;-69
2021/07/25 06:44:19;;;;;;;7.73;7.03;;;;;;;18.56;97.65;97519.16;4979723;28;20228;-69
2021/07/25 06:46:50;;;;;;;6.40;6.00;;;;;;;18.61;96.66;97512.06;4976959;28;20210;-70
2021/07/25 06:49:18;;;;;;;7.50;6.80;;;;;;;18.50;97.56;97510.97;4978519;28;20216;-68
2021/07/25 06:51:46;;;;;;;6.67;6.07;;;;;;;18.64;96.85;97510.78;4982860;28;20213;-69
2021/07/25 06:54:14;;;;;;;7.37;6.67;;;;;;;18.70;95.91;97522.47;4984674;28;20229;-68
2021/07/25 06:56:43;;;;;;;7.60;7.00;;;;;;;18.64;96.46;97519.66;4982321;28;20358;-67
2021/07/25 06:59:12;;;;;;;7.43;6.73;;;;;;;18.76;96.39;97513.50;4982163;28;20345;-68
2021/07/25 07:01:40;;;;;;;6.83;6.30;;;;;;;18.92;95.33;97509.34;4982987;28;20812;-70
2021/07/25 07:04:09;;;;;;;7.83;6.70;;;;;;;18.97;94.39;97522.09;4985260;28;20574;-68
2021/07/25 07:06:40;;;;;;;7.07;6.13;;;;;;;19.23;92.69;97510.94;4977805;28;20579;-70
2021/07/25 07:09:08;;;;;;;7.17;6.47;;;;;;;19.16;92.97;97512.13;4983245;28;20212;-70
2021/07/25 07:11:36;;;;;;;7.57;6.67;;;;;;;19.47;91.78;97508.28;4978982;28;20446;-71
2021/07/25 07:14:03;;;;;;;7.77;6.93;;;;;;;19.35;92.99;97504.78;4984904;28;20233;-71
2021/07/25 07:16:33;;;;;;;7.27;6.57;;;;;;;19.57;91.10;97504.19;4980059;28;20210;-66
2021/07/25 07:19:01;;;;;;;7.10;6.60;;;;;;;19.84;89.49;97501.00;4983655;28;20224;-69
2021/07/25 07:21:29;;;;;;;6.57;6.00;;;;;;;20.17;87.39;97500.38;4977199;28;20201;-68
2021/07/25 07:23:57;;;;;;;6.37;5.87;;;;;;;20.37;83.42;97499.97;4979978;28;20221;-69
2021/07/25 07:26:25;;;;;;;9.17;6.27;;;;;;;20.48;83.61;97497.47;4985604;28;20831;-70
2021/07/25 07:28:53;;;;;;;8.73;5.87;;;;;;;20.66;82.06;97493.78;4984385;28;20219;-67
2021/07/25 07:31:21;;;;;;;6.90;6.30;;;;;;;20.59;81.92;97499.28;4979089;28;20670;-69
2021/07/25 07:33:50;;;;;;;8.50;6.67;;;;;;;20.58;83.06;97488.75;4980413;28;20385;-67
2021/07/25 07:36:19;;;;;;;7.70;5.53;;;;;;;20.71;82.15;97485.78;4980769;28;20217;-68
2021/07/25 07:38:47;;;;;;;8.37;6.37;;;;;;;20.85;82.09;97483.63;4985759;28;20385;-69
2021/07/25 07:41:15;;;;;;;6.43;5.83;;;;;;;21.05;78.54;97488.53;4977676;28;20212;-69
2021/07/25 07:43:43;;;;;;;7.00;6.30;;;;;;;20.87;79.60;97486.91;4979057;28;20687;-69
2021/07/25 07:46:11;;;;;;;8.27;6.60;;;;;;;20.96;80.68;97489.97;4984060;28;20213;-68
2021/07/25 07:48:39;;;;;;;7.37;6.67;;;;;;;21.01;79.23;97486.56;4984286;28;20237;-68
2021/07/25 07:51:08;;;;;;;7.13;6.07;;;;;;;21.10;77.85;97485.94;4983286;28;20217;-69
2021/07/25 07:53:36;;;;;;;6.00;5.43;;;;;;;21.07;79.39;97480.22;4984183;28;20220;-67
2021/07/25 07:56:04;;;;;;;6.90;6.20;;;;;;;21.26;77.79;97488.84;4982178;28;20221;-67
2021/07/25 07:58:32;;;;;;;7.77;5.87;;;;;;;21.15;78.24;97487.06;4974662;28;20788;-68
2021/07/25 08:01:00;;;;;;;6.63;6.07;;;;;;;21.30;77.97;97484.59;4973478;28;20213;-66
2021/07/25 08:03:28;;;;;;;6.47;5.97;;;;;;;21.08;80.53;97492.59;4975223;28;20210;-68
2021/07/25 08:05:56;;;;;;;7.90;6.47;;;;;;;21.25;79.70;97487.22;4978457;28;20584;-68
2021/07/25 08:08:26;;;;;;;6.97;6.47;;;;;;;21.45;77.74;97483.22;4980541;28;20208;-67
2021/07/25 08:10:54;;;;;;;6.27;5.67;;;;;;;21.42;78.41;97473.72;4981366;28;20217;-65
2021/07/25 08:13:22;;;;;;;8.47;5.83;;;;;;;21.29;78.83;97482.16;4983963;28;20205;-66
2021/07/25 08:15:50;;;;;;;6.67;5.97;;;;;;;21.39;76.94;97474.22;4985932;28;20233;-66
2021/07/25 08:18:18;;;;;;;6.17;5.67;;;;;;;21.48;76.94;97470.03;4991670;28;20211;-67
2021/07/25 08:20:46;;;;;;;6.27;5.77;;;;;;;21.47;78.04;97473.00;4990074;28;20217;-69
2021/07/25 08:23:13;;;;;;;7.83;6.90;;;;;;;21.80;76.49;97484.81;4981491;28;20208;-67
2021/07/25 08:25:43;;;;;;;6.37;5.87;;;;;;;21.88;75.58;97481.69;4987823;28;20538;-68
2021/07/25 08:28:11;;;;;;;8.43;6.13;;;;;;;21.76;75.90;97475.56;4982375;28;20216;-65
2021/07/25 08:30:39;;;;;;;6.60;6.10;;;;;;;21.78;76.94;97470.72;4983515;28;20528;-66
2021/07/25 08:33:08;;;;;;;6.63;6.10;;;;;;;21.75;77.78;97472.06;4988298;28;20201;-69
2021/07/25 08:35:35;;;;;;;9.60;6.60;;;;;;;21.95;75.35;97467.97;4981508;28;20245;-67
2021/07/25 08:38:04;;;;;;;6.53;6.03;;;;;;;21.91;75.14;97470.38;4981634;28;20212;-67
2021/07/25 08:40:33;;;;;;;6.87;6.20;;;;;;;21.96;75.24;97481.22;4987589;28;20297;-67
2021/07/25 08:43:07;;;;;;;8.00;6.67;;;;;;;21.59;76.98;97465.63;4979754;28;20695;-67
2021/07/25 08:45:37;;;;;;;7.80;6.63;;;;;;;21.87;76.63;97476.53;4986671;28;20224;-66
2021/07/25 08:48:11;;;;;;;8.73;7.37;;;;;;;22.06;75.12;97471.63;4978180;28;20696;-69
2021/07/25 08:50:44;;;;;;;7.63;6.37;;;;;;;22.06;74.96;97474.31;4986125;28;20217;-67
2021/07/25 08:53:16;;;;;;;7.23;6.40;;;;;;;21.97;76.03;97474.78;4987568;28;20930;-67
2021/07/25 08:55:45;;;;;;;6.93;6.40;;;;;;;22.07;75.11;97476.78;4986231;28;20702;-67
2021/07/25 08:58:15;;;;;;;7.20;6.67;;;;;;;22.08;74.87;97477.59;4989117;28;20205;-67
2021/07/25 09:00:43;;;;;;;6.87;6.33;;;;;;;21.93;75.43;97476.34;4979242;28;20606;-66
2021/07/25 09:03:12;;;;;;;7.23;5.97;;;;;;;21.97;76.44;97482.88;4986375;28;20345;-66
2021/07/25 09:05:40;;;;;;;7.77;6.30;;;;;;;22.01;75.40;97480.50;4988718;28;20214;-67
2021/07/25 09:08:08;;;;;;;6.73;6.13;;;;;;;22.09;76.15;97477.34;4980929;28;20198;-67
2021/07/25 09:10:37;;;;;;;6.77;6.10;;;;;;;21.82;78.76;97478.09;4974199;28;20248;-67
2021/07/25 09:13:05;;;;;;;7.50;6.87;;;;;;;21.94;76.52;97477.16;4977345;28;20727;-67
2021/07/25 09:15:36;;;;;;;7.17;6.47;;;;;;;21.78;77.86;97476.13;4982222;28;20575;-68
2021/07/25 09:18:05;;;;;;;7.80;6.97;;;;;;;22.06;76.62;97477.84;4986255;28;20492;-68
2021/07/25 09:20:34;;;;;;;7.27;6.73;;;;;;;22.46;74.73;97478.59;4988017;28;20610;-69
2021/07/25 09:23:08;;;;;;;8.60;7.10;;;;;;;22.40;74.95;97480.41;4984062;28;20205;-68
2021/07/25 09:25:39;;;;;;;7.50;6.80;;;;;;;22.65;73.33;97486.34;4988466;28;20237;-70
2021/07/25 09:28:19;;;;;;;7.20;5.90;;;;;;;22.52;73.46;97484.88;4988072;28;20205;-70
2021/07/25 09:30:49;;;;;;;8.20;7.53;;;;;;;22.37;74.12;97482.78;4979617;28;20205;-68
2021/07/25 09:33:32;;;;;;;11.73;7.40;;;;;;;22.63;74.25;97485.78;4986556;28;20216;-69
2021/07/25 09:36:11;;;;;;;7.43;6.77;;;;;;;22.96;71.63;97484.72;4979212;28;20723;-69
2021/07/25 09:38:41;;;;;;;7.00;6.40;;;;;;;22.99;69.74;97486.91;4988140;28;20267;-69
2021/07/25 09:41:27;;;;;;;7.17;6.40;;;;;;;22.73;71.80;97480.47;4986927;28;20516;-70
2021/07/25 09:44:00;;;;;;;6.80;6.20;;;;;;;23.17;71.71;97481.38;4983423;28;20259;-69
2021/07/25 09:46:41;;;;;;;6.63;6.03;;;;;;;23.42;71.72;97486.19;4987128;28;20697;-69
2021/07/25 09:49:09;;;;;;;7.10;6.40;;;;;;;23.54;71.03;97486.00;4985729;28;20198;-70
2021/07/25 09:51:37;;;;;;;7.00;6.40;;;;;;;23.59;68.11;97496.84;4982127;28;20224;-71
2021/07/25 09:54:06;;;;;;;6.83;6.33;;;;;;;23.52;70.55;97488.13;4987195;28;20236;-69
2021/07/25 09:56:34;;;;;;;6.70;6.17;;;;;;;23.68;69.13;97492.59;4979015;28;20229;-69
2021/07/25 09:59:03;;;;;;;6.37;5.90;;;;;;;23.92;67.03;97502.97;4980316;28;20202;-70
2021/07/25 10:01:36;;;;;;;6.20;5.60;;;;;;;23.85;66.92;97499.69;4984442;28;20209;-70
2021/07/25 10:04:18;;;;;;;6.50;6.00;;;;;;;24.33;64.62;97499.66;4985135;28;20236;-70
2021/07/25 10:06:47;;;;;;;6.13;5.63;;;;;;;24.66;63.34;97483.19;4984776;28;20206;-69
2021/07/25 10:09:17;;;;;;;5.30;4.87;;;;;;;24.32;60.06;97481.78;4986022;28;20229;-69
2021/07/25 10:11:48;;;;;;;5.67;5.27;;;;;;;24.65;61.24;97490.53;4986965;28;20629;-69
2021/07/25 10:14:19;;;;;;;6.23;5.73;;;;;;;24.65;62.38;97479.69;4986418;28;20222;-69
2021/07/25 10:16:52;;;;;;;6.13;5.63;;;;;;;24.30;64.14;97478.53;4980404;28;20226;-69
2021/07/25 10:19:28;;;;;;;6.37;5.77;;;;;;;24.28;64.24;97470.66;4982826;28;20259;-69
2021/07/25 10:21:58;;;;;;;6.33;5.83;;;;;;;24.48;62.73;97460.16;4983104;28;20869;-70
2021/07/25 10:24:27;;;;;;;8.60;7.07;;;;;;;24.47;62.49;97464.78;4988016;28;20510;-70
2021/07/25 10:26:56;;;;;;;6.43;5.93;;;;;;;24.78;61.34;97464.81;4986727;28;20212;-69
2021/07/25 10:29:24;;;;;;;5.80;5.40;;;;;;;24.94;59.59;97454.00;4987102;28;20201;-69
2021/07/25 10:31:54;;;;;;;4.87;4.50;;;;;;;24.97;60.23;97453.47;4988479;28;20220;-71
2021/07/25 10:34:22;;;;;;;5.63;5.20;;;;;;;24.90;60.27;97461.84;4983625;28;20229;-69
2021/07/25 10:36:51;;;;;;;5.20;4.80;;;;;;;25.18;57.83;97456.16;4986907;28;20233;-69
2021/07/25 10:39:19;;;;;;;5.00;4.60;;;;;;;25.46;55.62;97456.66;4986314;28;20639;-69
2021/07/25 10:41:49;;;;;;;4.23;3.93;;;;;;;25.86;55.01;97455.75;4983159;28;20214;-71
2021/07/25 10:44:17;;;;;;;5.07;4.60;;;;;;;25.81;54.53;97460.38;4986481;28;20868;-68
2021/07/25 10:46:45;;;;;;;5.13;4.80;;;;;;;26.32;54.37;97461.28;4982811;28;20883;-70
2021/07/25 10:49:16;;;;;;;4.47;4.17;;;;;;;26.47;49.36;97463.09;4984118;28;20206;-69
2021/07/25 10:51:57;;;;;;;4.23;4.03;;;;;;;26.42;48.87;97462.03;4982369;28;20213;-66
2021/07/25 10:54:32;;;;;;;5.23;4.80;;;;;;;26.22;52.32;97465.66;4982485;28;20229;-67
2021/07/25 10:57:02;;;;;;;5.07;4.60;;;;;;;26.18;53.02;97459.19;4983853;28;20240;-70
2021/07/25 10:59:41;;;;;;;5.63;5.23;;;;;;;26.11;51.33;97448.59;4983855;28;20214;-70
2021/07/25 11:02:12;;;;;;;5.77;5.27;;;;;;;25.13;54.79;97448.84;4982677;28;20212;-69
2021/07/25 11:05:03;;;;;;;5.43;5.03;;;;;;;25.09;55.61;97453.19;4985115;28;20229;-68
2021/07/25 11:07:35;;;;;;;5.50;5.00;;;;;;;24.92;56.03;97445.34;4975401;28;20945;-68
2021/07/25 11:10:07;;;;;;;6.07;5.57;;;;;;;24.95;55.47;97445.59;4983683;28;20206;-68
2021/07/25 11:13:15;;;;;;;5.80;5.40;;;;;;;24.55;57.11;97450.69;4983549;28;20221;-69
2021/07/25 11:15:44;;;;;;;6.27;5.77;;;;;;;24.43;58.28;97452.81;4984482;28;20513;-67
2021/07/25 11:18:15;;;;;;;6.23;5.00;;;;;;;24.30;58.71;97446.03;4986562;28;20209;-69
2021/07/25 11:20:57;;;;;;;6.03;5.63;;;;;;;24.12;60.00;97448.16;4978976;28;20202;-69
2021/07/25 11:23:36;;;;;;;5.20;4.70;;;;;;;23.89;61.71;97443.19;4983277;28;20209;-68
2021/07/25 11:26:38;;;;;;;5.53;4.90;;;;;;;23.62;64.05;97454.94;4980679;28;20697;-71
2021/07/25 11:29:10;;;;;;;5.80;5.40;;;;;;;23.54;65.64;97442.72;4980189;28;20204;-69
2021/07/25 11:31:43;;;;;;;6.23;5.73;;;;;;;23.59;63.95;97448.16;4983425;28;20208;-68
2021/07/25 11:34:13;;;;;;;6.33;5.90;;;;;;;23.96;64.83;97451.84;4983439;28;20256;-68
2021/07/25 11:36:43;;;;;;;5.63;5.23;;;;;;;24.00;64.16;97455.66;4985675;28;20235;-69
2021/07/25 11:39:12;;;;;;;6.13;5.73;;;;;;;24.25;62.32;97459.56;4980554;28;20205;-68
2021/07/25 11:41:40;;;;;;;6.90;6.30;;;;;;;24.21;62.01;97456.56;4936712;28;1188990;-69